AirNav   Everest Fuels
 
 967 users online  

AZ33 Knoell-Main Office Heliport
Phoenix, Arizona, USA

GOING TO PHOENIX?


FAA INFORMATION EFFECTIVE 08 SEPTEMBER 2022

Location

FAA Identifier: AZ33
Lat/Long: 33-25-33.1600N 112-01-47.5290W
33-25.552667N 112-01.792150W
33.4258778,-112.0298692
(estimated)
Elevation: 1140 ft. / 347 m (estimated)
Variation: 13E (1985)
From city: 3 miles S of PHOENIX, AZ
Time zone: UTC -7 (year round; does not observe DST)
Zip code: 85034

Heliport Operations

Heliport use: Private use. Permission required prior to landing
Activation date: 04/1981
Control tower: no
ARTCC: ALBUQUERQUE CENTER
FSS: PRESCOTT FLIGHT SERVICE STATION
Attendance: UNATNDD
Wind indicator: no
Segmented circle: no

Heliport Communications

WX ASOS at PHX (1.0 nm NE): PHONE 602-231-8557
WX ASOS at SDL (13 nm NE): PHONE 480-483-3049
WX AWOS-3PT at CHD (14 nm SE): PHONE 480-814-9952
WX AWOS-3 at GEU (15 nm NW): PHONE 623-877-8609
WX ASOS at FFZ (15 nm E): PHONE 480-641-4111
WX ASOS at DVT (16 nm N): 126.5 (623-587-7764)

Nearby radio navigation aids

VOR radial/distance  VOR name  Freq  Var
PXRr250/3.0PHOENIX VORTAC115.6012E
IWAr278/20.3WILLIE VORTAC113.3013E
TFDr337/33.0STANFIELD VORTAC114.8012E
BXKr078/39.8BUCKEYE VORTAC110.6014E

Heliport Services

Runway Information

Helipad H1

Dimensions: 30 x 30 ft. / 9 x 9 m
Surface: concrete
ROOFTOP.
Latitude: 33-25.552667N
Longitude: 112-01.792167W
Elevation: 1140.0 ft.
Traffic pattern: leftleft

Heliport Ownership and Management from official FAA records

Ownership: Privately-owned
Owner: SARI F. DEIHL
JOSEPH WILLIAM & ASSOCIATES LLC, 2401 S 24TH ST
PHOENIX, AZ 85034
Manager: JOSEPH DEIHL
2401 S 24TH ST
PHOENIX, AZ 85034
Phone (602) 769-1117

Additional Remarks

FOR CD CTC PHOENIX APCH AT 602-306-2565.

Instrument Procedures

There are no published instrument procedures at AZ33.

Some nearby airports with instrument procedures:

KPHX - Phoenix Sky Harbor International Airport (1 nm NE)
P19 - Stellar Airpark (10 nm SE)
KSDL - Scottsdale Airport (13 nm NE)
KCHD - Chandler Municipal Airport (14 nm SE)
KGEU - Glendale Municipal Airport (15 nm NW)
KFFZ - Falcon Field Airport (15 nm E)
KDVT - Phoenix Deer Valley Airport (16 nm N)
KGYR - Phoenix Goodyear Airport (17 nm W)
KLUF - Luke Air Force Base (19 nm W)
 
Loc | Ops | Rwys | IFR | FBO | Links
Com | Nav | Svcs | Stats | Notes
Area around AZ33 (Knoell-Main Office Heliport)
 
Road maps at: MapQuest Bing Google
 
Aerial photo
No photo
 
Sectional chart

 
Airport distance calculator
Flying to Knoell-Main Office Heliport? Find the distance to fly.

From to AZ33

Sunrise and sunset
Times for 02-Oct-2022
 Local
(UTC-7)
 Zulu
(UTC)
Morning civil twilight05:5912:59
Sunrise06:2413:24
Sunset18:1101:11
Evening civil twilight18:3601:36

Current date and time
Zulu (UTC)  02-Oct-2022 20:21:30
Local (UTC-7)  02-Oct-2022 13:21:30
 
METAR
KPHX 021951Z VRB03KT 10SM FEW100 FEW250 34/13 A2987 RMK AO2 SLP095 CB DSNT NW T03440128 $
KSDL 
13nm NE 
021953Z VRB05KT 10SM CLR 33/12 A2992 RMK AO2 SLP104 T03280122
KCHD 
14nm SE 
021947Z 00000KT 10SM CLR 33/12 A2990
KGEU 
15nm NW 
021947Z VRB04KT 10SM SCT100 33/14 A2987
KDVT 
16nm N 
021953Z 10SM CLR 33/12 A2991 RMK AO2 SLP102 T03280117
KFFZ 
16nm E 
021954Z 14005KT 10SM CLR 34/13 A2989 RMK AO2 SLP097 T03390133
KGYR 
17nm W 
021747Z VRB04KT 10SM FEW070 31/18 A2994
KLUF 
18nm W 
021955Z AUTO 00000KT 10SM CLR 34/14 A2987 RMK AO2 SLP099 T03390139 $
TAF
KPHX 021720Z 0218/0324 16007KT P6SM FEW100 FEW150 FM022200 21007KT P6SM FEW100 FEW150 FM030000 25006KT P6SM FEW100 FEW150 FM030400 10005KT P6SM FEW100 SCT150 SCT250 FM031700 14008KT P6SM FEW100 FEW150 FM032100 28008KT P6SM FEW100 FEW150
KSDL 
13nm NE 
021720Z 0218/0318 VRB04KT P6SM FEW100 FEW150 FM022100 21007KT P6SM FEW100 FEW150 FM030300 04005KT P6SM FEW100 SCT150 SCT250 FM030800 VRB03KT P6SM FEW100 FEW150
KDVT 
16nm N 
021720Z 0218/0318 18008KT P6SM FEW100 FEW150 FM022200 23009KT P6SM FEW100 FEW150 FM030400 03008KT P6SM FEW100 SCT150 SCT250 FM030900 VRB04KT P6SM FEW100 FEW150
NOTAMs
Click for the latest NOTAMs
NOTAMs are issued by the DoD/FAA and will open in a separate window not controlled by AirNav.

 

 
 

Would you like to see your business listed on this page?

 If your business provides an interesting product or service to pilots, flight crews, aircraft, or users of the Knoell-Main Office Heliport, you should consider listing it here.  To start the listing process, click on the button below
 
Add a business
 

Other Pages about Knoell-Main Office Heliport

Update a link
 
Copyright © AirNav, LLC. All rights reserved. Privacy Policy  Contact